Terminal Aerodrome Forecast
Issued by NWS Shreveport, LA

Home | Current Version | Previous Version | Text Only | Print | Product List | Glossary On
Versions: 1 2 3 4 5 6 7 8 9 10 11 12 13
000
FTUS44 KSHV 301100 RRA
TAFELD
TAF
KELD 301154Z 3012/0112 VRB03KT P6SM OVC090
      TEMPO 3012/3014 5SM BR
     FM301400 08006KT P6SM BKN090
     FM301800 12005KT P6SM SCT050 SCT090 BKN250
     FM010000 VRB03KT P6SM SCT070 BKN250
     FM010400 00000KT P6SM BKN150=

USA.gov is the U.S. government's official web portal to all federal, state and local government web resources and services.